aviador You're here:

HEMM Decoded Metar

MERSA-MATRUH in EGYPT
Report Time2018-01-17 08:00:00
UTC Time2018-01-17 09:10:54
Flight Rules Old
Wind260° at 12 kt
W.Decomp.*RWY 24: 11.5 kt HW 3.5 kt RCW
RWY 33: 3.5 kt HW 11.5 kt LCW
W.Rank260° ranks 9
Current wind is above 260° avg. (8.5)
Visibility9999 m
Phenomena:N/A
Clouds:Few 020 Hf
Expected CloudBase > 2,800 ft AGL from Temp-Dew spread
CeilingNone
Temp16°C (ISA +1)
Dew Point09°C (63% RH)
AAT11.5°C
QNH1021 hPa
Density Alt125 ft
Elevation98 ft
Report Wrong Elevation
Raw Report
HEMM 170800Z 26012KT 9999 FEW020 16/09 Q1021 NOSIG=

Extra information for HEMM:More info

Metar Taf Metar & Taf Last 4 Metars F.Rules Stats Wind Profile Meteogram Temp Stats Airport Information Weather charts Add Link Nearby VenuesMetar ALERT Operation Metar Decoded Social comments